createdAt,value
2022-10-08T06:17:58.617Z,1.48
2022-10-08T06:20:31.056Z,1.42
2022-10-08T06:22:59.787Z,1.55
2022-10-08T06:25:27.594Z,1.52
2022-10-08T06:27:55.383Z,1.58
2022-10-08T06:30:23.227Z,1.35
2022-10-08T06:32:51.023Z,1.50
2022-10-08T06:35:20.259Z,1.55
2022-10-08T06:37:48.865Z,1.55
2022-10-08T06:40:17.005Z,1.65
2022-10-08T06:42:45.202Z,1.60
2022-10-08T06:45:13.278Z,1.20
2022-10-08T06:47:41.189Z,1.27
2022-10-08T06:50:09.623Z,1.38
2022-10-08T06:52:38.911Z,1.30
2022-10-08T06:55:07.228Z,1.60
2022-10-08T06:57:35.205Z,0.82
2022-10-08T07:00:03.092Z,1.48
2022-10-08T07:02:31.912Z,1.40
2022-10-08T07:04:59.810Z,1.48
2022-10-08T07:07:27.756Z,1.17
2022-10-08T07:09:56.935Z,1.30
2022-10-08T07:12:24.900Z,1.30
2022-10-08T07:14:52.739Z,1.13
2022-10-08T07:17:20.576Z,0.90
2022-10-08T07:19:48.502Z,1.23
2022-10-08T07:22:16.323Z,0.95
2022-10-08T07:24:44.121Z,1.27
2022-10-08T07:27:13.472Z,0.88
2022-10-08T07:29:41.503Z,1.30
2022-10-08T07:32:09.352Z,1.10
2022-10-08T07:34:37.345Z,1.20
2022-10-08T07:37:05.290Z,0.73
2022-10-08T07:39:33.196Z,1.00
2022-10-08T07:42:00.993Z,0.85
2022-10-08T07:44:30.160Z,1.20
2022-10-08T07:46:57.990Z,0.80
2022-10-08T07:49:25.894Z,1.33
2022-10-08T07:51:53.781Z,1.08
2022-10-08T07:54:21.722Z,1.05
2022-10-08T07:56:49.748Z,1.10
2022-10-08T07:59:17.603Z,1.00
2022-10-08T08:01:46.918Z,1.00
2022-10-08T08:04:15.599Z,1.00
2022-10-08T08:06:45.353Z,1.08
2022-10-08T08:09:14.334Z,1.27
2022-10-08T08:11:42.521Z,1.30
2022-10-08T08:14:10.324Z,0.65
2022-10-08T08:16:38.780Z,0.95
2022-10-08T08:19:08.222Z,0.85
2022-10-08T08:21:38.404Z,1.23
2022-10-08T08:24:08.416Z,0.88
2022-10-08T08:26:38.752Z,1.25
2022-10-08T08:29:08.691Z,1.05
2022-10-08T08:31:39.004Z,0.90
2022-10-08T08:34:10.066Z,1.15
2022-10-08T08:36:39.891Z,1.13
2022-10-08T08:39:09.852Z,1.00
2022-10-08T08:41:48.686Z,0.93
2022-10-08T08:44:21.993Z,0.60
2022-10-08T08:46:53.500Z,0.52
2022-10-08T08:49:28.346Z,0.60
2022-10-08T08:51:58.233Z,0.80
2022-10-08T08:54:26.764Z,0.60
2022-10-08T08:56:55.769Z,0.80
2022-10-08T08:59:28.045Z,0.75
2022-10-08T09:02:00.051Z,0.60
2022-10-08T09:04:44.280Z,0.57
2022-10-08T09:07:18.773Z,1.05
2022-10-08T09:09:49.803Z,0.90
2022-10-08T09:12:21.152Z,0.68
